Valkyrie — WDE9186 — position and weather

sailwx.info

Track history (hours):
 
Tides and Currents Weather Stations Pressure Air Temp Water Temp Dewpoint Dewpoint Depression Visibility Wind Speed Wind Dir Waves Ship Positions

Valkyrie

Owner: Marina Management Corp., Pensacola, FL. More information available from US FCC via Universal Licensing System and Coast Guard Vessel Documentation Center.

Last reported at 2016-Apr-30 17:19 UTC. Time now 2016-May-02 01:24 UTC.
Position N 27°02' W 080°07'.

Length 23 m; draft 2.1 m.

Type: Pleasure craft. MMSI: 367414480.

Date/timePositionNaut miles runAvg speedWind from/ knotsBaromVisibWave heightAir tempDewpointWater temp
2016-Apr-30 17:19N 27°02' W 080°07'6 7.6
2016-Apr-30 16:34N 26°57' W 080°05'  
2016-Apr-27 17:33N 26°23' W 080°04'5 4.5
2016-Apr-27 16:32N 26°19' W 080°05'5 5.1
2016-Apr-27 15:33N 26°14' W 080°06'6 5.6
2016-Apr-27 14:33N 26°08' W 080°06'1 1.5
2016-Apr-27 13:33N 26°07' W 080°06'0 0.0
2016-Apr-27 12:33N 26°07' W 080°06'0 0.0
2016-Apr-27 11:33N 26°07' W 080°06'0 0.0
2016-Apr-27 10:33N 26°07' W 080°06'0 0.0
2016-Apr-27 09:33N 26°07' W 080°06'0 0.0
2016-Apr-27 08:33N 26°07' W 080°06'0 0.0
2016-Apr-27 07:33N 26°07' W 080°06'0 0.0
2016-Apr-27 06:33N 26°07' W 080°06'0 0.0
2016-Apr-27 05:33N 26°07' W 080°06'0 0.0
2016-Apr-27 04:33N 26°07' W 080°06'0 0.0
2016-Apr-27 03:33N 26°07' W 080°06'0 0.0
2016-Apr-27 02:33N 26°07' W 080°06'0 0.0
2016-Apr-27 01:33N 26°07' W 080°06'0 0.0
2016-Apr-27 00:33N 26°07' W 080°06'0 0.0
2016-Apr-26 23:33N 26°07' W 080°06'0 0.0
2016-Apr-26 22:33N 26°07' W 080°06'0 0.0
2016-Apr-26 21:33N 26°07' W 080°06'0 0.0
2016-Apr-26 20:33N 26°07' W 080°06'0 0.0
2016-Apr-26 19:33N 26°07' W 080°06'0 0.0
2016-Apr-26 18:33N 26°07' W 080°06'0 0.0
2016-Apr-26 17:33N 26°07' W 080°06'0 0.0
2016-Apr-26 16:33N 26°07' W 080°06'0 0.0
2016-Apr-26 15:33N 26°07' W 080°06'0 0.0
2016-Apr-26 14:33N 26°07' W 080°06'0 0.0
2016-Apr-26 13:33N 26°07' W 080°06'0 0.0
2016-Apr-26 12:33N 26°07' W 080°06'0 0.0
2016-Apr-26 11:33N 26°07' W 080°06'0 0.0
2016-Apr-26 10:33N 26°07' W 080°06'0 0.0
2016-Apr-26 09:33N 26°07' W 080°06'0 0.0
2016-Apr-26 08:33N 26°07' W 080°06'0 0.0
2016-Apr-26 07:33N 26°07' W 080°06'0 0.0
2016-Apr-26 06:33N 26°07' W 080°06'0 0.0
2016-Apr-26 05:33N 26°07' W 080°06'0 0.0
2016-Apr-26 04:33N 26°07' W 080°06'0 0.0
2016-Apr-26 03:33N 26°07' W 080°06'0 0.0
2016-Apr-26 02:33N 26°07' W 080°06'0 0.0
2016-Apr-26 01:33N 26°07' W 080°06'0 0.0
2016-Apr-26 00:33N 26°07' W 080°06'0 0.0
2016-Apr-25 23:33N 26°07' W 080°06'0 0.0
2016-Apr-25 22:33N 26°07' W 080°06'0 0.0
2016-Apr-25 21:33N 26°07' W 080°06'0 0.0
2016-Apr-25 20:33N 26°07' W 080°06'0 0.0
2016-Apr-25 19:33N 26°07' W 080°06'0 0.0
2016-Apr-25 18:33N 26°07' W 080°06'0 0.0
2016-Apr-25 17:33N 26°07' W 080°06'0 0.0
2016-Apr-25 16:33N 26°07' W 080°06'0 0.0
2016-Apr-25 15:33N 26°07' W 080°06'0 0.0
2016-Apr-25 14:33N 26°07' W 080°06'0 0.0
2016-Apr-25 13:33N 26°07' W 080°06'0 0.0
2016-Apr-25 12:33N 26°07' W 080°06'0 0.2
2016-Apr-25 11:34N 26°07' W 080°07'2 2.0
2016-Apr-25 10:34N 26°05' W 080°05'8 7.9
2016-Apr-25 09:33N 26°03' W 079°57'8 7.7
2016-Apr-25 08:33N 25°60' W 079°49'  
Track history (hours):
 
Tides and Currents Weather Stations Pressure Air Temp Water Temp Dewpoint Dewpoint Depression Visibility Wind Speed Wind Dir Waves Ship Positions

Valkyrie

Owner: Marina Management Corp., Pensacola, FL. More information available from US FCC via Universal Licensing System and Coast Guard Vessel Documentation Center.

Last reported at 2016-Apr-30 17:19 UTC. Time now 2016-May-02 01:24 UTC.
Position N 27°02' W 080°07'.

Length 23 m; draft 2.1 m.

Type: Pleasure craft. MMSI: 367414480.

Date/timePositionNaut miles runAvg speedWind from/ knotsBaromVisibWave heightAir tempDewpointWater temp
2016-Apr-30 17:19N 27°02' W 080°07'6 7.6
2016-Apr-30 16:34N 26°57' W 080°05'  
2016-Apr-27 17:33N 26°23' W 080°04'5 4.5
2016-Apr-27 16:32N 26°19' W 080°05'5 5.1
2016-Apr-27 15:33N 26°14' W 080°06'6 5.6
2016-Apr-27 14:33N 26°08' W 080°06'1 1.5
2016-Apr-27 13:33N 26°07' W 080°06'0 0.0
2016-Apr-27 12:33N 26°07' W 080°06'0 0.0
2016-Apr-27 11:33N 26°07' W 080°06'0 0.0
2016-Apr-27 10:33N 26°07' W 080°06'0 0.0
2016-Apr-27 09:33N 26°07' W 080°06'0 0.0
2016-Apr-27 08:33N 26°07' W 080°06'0 0.0
2016-Apr-27 07:33N 26°07' W 080°06'0 0.0
2016-Apr-27 06:33N 26°07' W 080°06'0 0.0
2016-Apr-27 05:33N 26°07' W 080°06'0 0.0
2016-Apr-27 04:33N 26°07' W 080°06'0 0.0
2016-Apr-27 03:33N 26°07' W 080°06'0 0.0
2016-Apr-27 02:33N 26°07' W 080°06'0 0.0
2016-Apr-27 01:33N 26°07' W 080°06'0 0.0
2016-Apr-27 00:33N 26°07' W 080°06'0 0.0
2016-Apr-26 23:33N 26°07' W 080°06'0 0.0
2016-Apr-26 22:33N 26°07' W 080°06'0 0.0
2016-Apr-26 21:33N 26°07' W 080°06'0 0.0
2016-Apr-26 20:33N 26°07' W 080°06'0 0.0
2016-Apr-26 19:33N 26°07' W 080°06'0 0.0
2016-Apr-26 18:33N 26°07' W 080°06'0 0.0
2016-Apr-26 17:33N 26°07' W 080°06'0 0.0
2016-Apr-26 16:33N 26°07' W 080°06'0 0.0
2016-Apr-26 15:33N 26°07' W 080°06'0 0.0
2016-Apr-26 14:33N 26°07' W 080°06'0 0.0
2016-Apr-26 13:33N 26°07' W 080°06'0 0.0
2016-Apr-26 12:33N 26°07' W 080°06'0 0.0
2016-Apr-26 11:33N 26°07' W 080°06'0 0.0
2016-Apr-26 10:33N 26°07' W 080°06'0 0.0
2016-Apr-26 09:33N 26°07' W 080°06'0 0.0
2016-Apr-26 08:33N 26°07' W 080°06'0 0.0
2016-Apr-26 07:33N 26°07' W 080°06'0 0.0
2016-Apr-26 06:33N 26°07' W 080°06'0 0.0
2016-Apr-26 05:33N 26°07' W 080°06'0 0.0
2016-Apr-26 04:33N 26°07' W 080°06'0 0.0
2016-Apr-26 03:33N 26°07' W 080°06'0 0.0
2016-Apr-26 02:33N 26°07' W 080°06'0 0.0
2016-Apr-26 01:33N 26°07' W 080°06'0 0.0
2016-Apr-26 00:33N 26°07' W 080°06'0 0.0
2016-Apr-25 23:33N 26°07' W 080°06'0 0.0
2016-Apr-25 22:33N 26°07' W 080°06'0 0.0
2016-Apr-25 21:33N 26°07' W 080°06'0 0.0
2016-Apr-25 20:33N 26°07' W 080°06'0 0.0
2016-Apr-25 19:33N 26°07' W 080°06'0 0.0
2016-Apr-25 18:33N 26°07' W 080°06'0 0.0
2016-Apr-25 17:33N 26°07' W 080°06'0 0.0
2016-Apr-25 16:33N 26°07' W 080°06'0 0.0
2016-Apr-25 15:33N 26°07' W 080°06'0 0.0
2016-Apr-25 14:33N 26°07' W 080°06'0 0.0
2016-Apr-25 13:33N 26°07' W 080°06'0 0.0
2016-Apr-25 12:33N 26°07' W 080°06'0 0.2
2016-Apr-25 11:34N 26°07' W 080°07'2 2.0
2016-Apr-25 10:34N 26°05' W 080°05'8 7.9
2016-Apr-25 09:33N 26°03' W 079°57'8 7.7
2016-Apr-25 08:33N 25°60' W 079°49'  

Dump ship's entire track history